createdAt,value
2023-04-17T00:00:31.112Z,101009.58
2023-04-17T00:03:22.574Z,101011.15
2023-04-17T00:05:56.757Z,101006.57
2023-04-17T00:08:28.558Z,101006.56
2023-04-17T00:11:07.998Z,101007.54
2023-04-17T00:13:40.709Z,101005.14
2023-04-17T00:16:13.816Z,101004.15
2023-04-17T00:18:45.710Z,101002.70
2023-04-17T00:21:17.876Z,101001.56
2023-04-17T00:23:49.620Z,101006.17
2023-04-17T00:26:21.478Z,101000.76
2023-04-17T00:28:53.922Z,101002.67
2023-04-17T00:31:26.173Z,101005.98
2023-04-17T00:33:59.049Z,101010.19
2023-04-17T00:36:32.632Z,101008.49
2023-04-17T00:39:04.363Z,101007.92
2023-04-17T00:41:36.160Z,101003.59
2023-04-17T00:44:08.811Z,101001.14
2023-04-17T00:46:41.575Z,101006.90
2023-04-17T00:49:14.075Z,101008.71
2023-04-17T00:51:47.062Z,101008.30
2023-04-17T00:54:20.553Z,101010.86
2023-04-17T00:56:56.518Z,101011.91
2023-04-17T00:59:29.411Z,101016.41
2023-04-17T01:02:02.327Z,101018.34
2023-04-17T01:04:34.756Z,101018.01
2023-04-17T01:07:07.357Z,101019.46
2023-04-17T01:09:39.613Z,101021.92
2023-04-17T01:12:22.198Z,101023.84
2023-04-17T01:14:55.194Z,101020.63
2023-04-17T01:17:27.673Z,101023.82
2023-04-17T01:20:00.297Z,101023.70
2023-04-17T01:22:30.695Z,101022.73
2023-04-17T01:25:02.805Z,101025.20
2023-04-17T01:27:39.807Z,101021.56
2023-04-17T01:30:14.844Z,101021.23
2023-04-17T01:32:54.411Z,101021.92
2023-04-17T01:35:26.748Z,101021.75
2023-04-17T01:37:57.961Z,101019.46
2023-04-17T01:40:30.546Z,101019.96
2023-04-17T01:43:03.102Z,101021.08
2023-04-17T01:45:34.933Z,101023.33
2023-04-17T01:48:07.643Z,101019.05
2023-04-17T01:50:39.417Z,101029.44
2023-04-17T01:53:11.111Z,101028.79
2023-04-17T01:55:42.783Z,101028.66
2023-04-17T01:58:14.532Z,101035.78
2023-04-17T02:00:48.220Z,101037.02
2023-04-17T02:03:20.393Z,101040.45
2023-04-17T02:05:53.252Z,101039.04
2023-04-17T02:08:25.082Z,101037.17
2023-04-17T02:10:59.370Z,101041.66
2023-04-17T02:13:31.303Z,101043.70
2023-04-17T02:16:03.119Z,101043.77
2023-04-17T02:18:34.872Z,101046.36
2023-04-17T02:21:06.800Z,101048.00
2023-04-17T02:23:40.531Z,101050.84
2023-04-17T02:26:12.496Z,101046.93
2023-04-17T02:28:46.134Z,101051.86
2023-04-17T02:31:18.147Z,101053.52
2023-04-17T02:33:50.710Z,101055.05
2023-04-17T02:36:22.839Z,101054.50
2023-04-17T02:38:54.872Z,101054.80
2023-04-17T02:41:26.600Z,101057.69
2023-04-17T02:43:58.560Z,101052.48
2023-04-17T02:46:30.661Z,101051.64
2023-04-17T02:49:02.538Z,101049.27
2023-04-17T02:51:36.129Z,101048.72
2023-04-17T02:54:08.466Z,101045.48
2023-04-17T02:56:40.333Z,101048.05
2023-04-17T02:59:13.865Z,101048.54
2023-04-17T03:01:46.628Z,101047.81
2023-04-17T03:04:18.743Z,101052.90
2023-04-17T03:06:51.501Z,101055.72
2023-04-17T03:09:23.773Z,101060.34
2023-04-17T03:11:56.692Z,101064.50
2023-04-17T03:14:28.865Z,101062.76
2023-04-17T03:17:01.011Z,101065.48
2023-04-17T03:19:33.046Z,101066.73
2023-04-17T03:22:05.779Z,101066.38
2023-04-17T03:24:36.276Z,101066.95
2023-04-17T03:27:08.272Z,101067.23
2023-04-17T03:29:43.210Z,101069.02
2023-04-17T03:32:15.157Z,101067.56
2023-04-17T03:34:47.387Z,101067.73
2023-04-17T03:37:19.413Z,101068.52
2023-04-17T03:39:51.382Z,101068.55
2023-04-17T03:42:23.208Z,101069.39
2023-04-17T03:44:56.125Z,101074.40
2023-04-17T03:47:28.060Z,101073.14
2023-04-17T03:50:01.444Z,101077.21
2023-04-17T03:52:36.500Z,101074.56
2023-04-17T03:55:10.555Z,101081.62
2023-04-17T03:57:42.752Z,101076.27
2023-04-17T04:00:16.239Z,101077.85
2023-04-17T04:02:51.710Z,101085.77
2023-04-17T04:05:30.217Z,101084.70
2023-04-17T04:08:03.075Z,101083.30
2023-04-17T04:10:46.892Z,101083.34
2023-04-17T04:13:23.041Z,101083.67
2023-04-17T04:15:58.991Z,101085.80
2023-04-17T04:18:32.926Z,101085.99
2023-04-17T04:21:05.824Z,101086.85
2023-04-17T04:23:41.233Z,101090.40
2023-04-17T04:26:13.578Z,101095.65
2023-04-17T04:28:49.858Z,101103.39
2023-04-17T04:31:26.488Z,101105.58
2023-04-17T04:33:59.023Z,101101.95
2023-04-17T04:36:36.166Z,101105.85
2023-04-17T04:39:20.650Z,101109.56
2023-04-17T04:41:54.121Z,101112.06
2023-04-17T04:44:27.450Z,101116.45
2023-04-17T04:47:01.684Z,101116.94
2023-04-17T04:49:33.899Z,101111.73
2023-04-17T04:52:06.671Z,101117.29
2023-04-17T04:54:38.770Z,101119.68
2023-04-17T04:57:10.688Z,101119.70
2023-04-17T04:59:42.420Z,101124.94
2023-04-17T05:02:34.669Z,101126.19
2023-04-17T05:05:09.975Z,101127.56
2023-04-17T05:07:42.264Z,101129.67
2023-04-17T05:10:18.047Z,101130.41
2023-04-17T05:12:55.396Z,101128.63
2023-04-17T05:15:27.896Z,101136.92
2023-04-17T05:18:00.432Z,101136.56
2023-04-17T05:20:33.229Z,101134.97
2023-04-17T05:23:05.900Z,101138.06
2023-04-17T05:25:36.332Z,101142.56
2023-04-17T05:28:10.647Z,101140.32
2023-04-17T05:30:43.433Z,101137.73
2023-04-17T05:33:27.561Z,101141.55
2023-04-17T05:36:03.107Z,101140.95
2023-04-17T05:38:37.228Z,101145.03
2023-04-17T05:41:11.723Z,101147.36
2023-04-17T05:43:43.879Z,101145.55
2023-04-17T05:46:17.581Z,101141.27
2023-04-17T05:48:50.466Z,101142.89
2023-04-17T05:51:22.781Z,101138.15
2023-04-17T05:53:54.780Z,101144.11
2023-04-17T05:56:26.522Z,101142.13
2023-04-17T05:58:58.578Z,101144.16
2023-04-17T06:01:32.589Z,101140.89
2023-04-17T06:04:04.687Z,101145.88
2023-04-17T06:06:37.442Z,101148.73
2023-04-17T06:09:11.244Z,101155.30
2023-04-17T06:11:43.650Z,101152.91
2023-04-17T06:14:15.882Z,101156.20
2023-04-17T06:16:48.305Z,101157.60
2023-04-17T06:19:22.493Z,101162.48
2023-04-17T06:21:54.546Z,101159.16
2023-04-17T06:24:26.671Z,101163.44
2023-04-17T06:26:59.981Z,101165.11
2023-04-17T06:29:32.088Z,101166.69
2023-04-17T06:32:04.039Z,101167.08
2023-04-17T06:34:38.176Z,101176.09
2023-04-17T06:37:15.634Z,101178.10
2023-04-17T06:39:47.829Z,101176.27
2023-04-17T06:42:20.528Z,101183.57
2023-04-17T06:44:57.214Z,101184.06
2023-04-17T06:47:29.266Z,101186.91
2023-04-17T06:50:01.524Z,101188.56
2023-04-17T06:52:33.475Z,101190.55
2023-04-17T06:55:05.844Z,101192.50
2023-04-17T06:57:39.237Z,101195.88
2023-04-17T07:00:14.041Z,101198.23
2023-04-17T07:02:46.436Z,101204.74
2023-04-17T07:05:19.033Z,101210.34
2023-04-17T07:07:50.890Z,101212.02
2023-04-17T07:10:22.803Z,101219.20
2023-04-17T07:12:55.169Z,101222.83
2023-04-17T07:15:30.445Z,101227.45
2023-04-17T07:18:02.468Z,101224.60
2023-04-17T07:20:34.504Z,101222.63
2023-04-17T07:23:06.383Z,101232.89
2023-04-17T07:25:38.469Z,101234.11
2023-04-17T07:28:10.859Z,101232.29
2023-04-17T07:30:43.287Z,101239.86
2023-04-17T07:33:15.228Z,101239.46
2023-04-17T07:35:47.222Z,101240.36
2023-04-17T07:38:19.122Z,101245.03
2023-04-17T07:40:50.921Z,101249.01
2023-04-17T07:43:22.808Z,101252.70
2023-04-17T07:45:55.005Z,101257.72
2023-04-17T07:48:27.304Z,101262.18
2023-04-17T07:51:02.139Z,101263.99
2023-04-17T07:53:36.004Z,101265.64
2023-04-17T07:56:08.335Z,101265.46
2023-04-17T07:58:40.148Z,101267.27
2023-04-17T08:01:12.309Z,101269.20
2023-04-17T08:03:45.423Z,101264.29
2023-04-17T08:06:17.507Z,101267.20
2023-04-17T08:08:49.730Z,101268.50
2023-04-17T08:11:22.306Z,101265.70
2023-04-17T08:13:54.960Z,101269.06
2023-04-17T08:16:26.725Z,101278.13
2023-04-17T08:18:58.591Z,101278.46
2023-04-17T08:21:31.064Z,101277.96
2023-04-17T08:24:05.928Z,101282.26
2023-04-17T08:26:38.004Z,101280.00
2023-04-17T08:29:09.969Z,101282.83
2023-04-17T08:31:41.971Z,101289.27
2023-04-17T08:34:15.518Z,101294.23
2023-04-17T08:36:47.980Z,101298.55
2023-04-17T08:39:19.889Z,101301.43
2023-04-17T08:42:00.280Z,101301.96
2023-04-17T08:44:33.185Z,101299.73
2023-04-17T08:47:04.548Z,101302.55
2023-04-17T08:49:37.194Z,101304.98
2023-04-17T08:52:09.793Z,101307.33
2023-04-17T08:54:40.320Z,101313.27
2023-04-17T08:57:12.770Z,101308.33
2023-04-17T08:59:47.048Z,101313.04
2023-04-17T09:02:19.051Z,101312.30
2023-04-17T09:04:53.832Z,101315.40
2023-04-17T09:07:31.724Z,101318.58
2023-04-17T09:10:03.514Z,101319.48
2023-04-17T09:12:41.702Z,101320.58
2023-04-17T09:15:19.886Z,101321.05
2023-04-17T09:17:51.645Z,101323.39
2023-04-17T09:20:23.479Z,101318.40
2023-04-17T09:23:02.948Z,101323.68
2023-04-17T09:25:34.852Z,101325.42
2023-04-17T09:28:14.699Z,101321.73
2023-04-17T09:30:46.585Z,101325.41
2023-04-17T09:33:20.725Z,101324.19
2023-04-17T09:35:52.645Z,101325.23
2023-04-17T09:38:39.970Z,101329.23
2023-04-17T09:41:25.468Z,101332.95
2023-04-17T09:44:01.791Z,101332.59
2023-04-17T09:46:46.111Z,101330.89
2023-04-17T09:49:21.037Z,101331.07
2023-04-17T09:51:53.675Z,101331.29
2023-04-17T09:54:26.368Z,101334.38
2023-04-17T09:56:58.648Z,101332.98
2023-04-17T09:59:31.445Z,101334.48
2023-04-17T10:02:04.957Z,101333.90
2023-04-17T10:04:37.765Z,101331.64
2023-04-17T10:07:10.210Z,101332.89
2023-04-17T10:09:45.633Z,101334.23
2023-04-17T10:12:19.478Z,101335.92
2023-04-17T10:14:53.006Z,101337.44
2023-04-17T10:17:31.611Z,101337.34
2023-04-17T10:20:30.881Z,101333.65
2023-04-17T10:23:22.849Z,101341.45
2023-04-17T10:26:43.235Z,101343.32
2023-04-17T10:29:15.504Z,101339.05
2023-04-17T10:32:29.073Z,101340.02
2023-04-17T10:35:03.350Z,101334.97
2023-04-17T10:38:05.517Z,101332.14
2023-04-17T10:40:39.161Z,101327.16
2023-04-17T10:43:14.806Z,101324.64
2023-04-17T10:46:03.066Z,101325.77
2023-04-17T10:48:38.069Z,101321.47
2023-04-17T10:51:43.910Z,101324.19
2023-04-17T10:54:16.311Z,101317.22
2023-04-17T10:56:48.848Z,101319.52
2023-04-17T10:59:20.822Z,101316.21
2023-04-17T11:02:04.662Z,101322.31
2023-04-17T11:04:37.144Z,101315.58
2023-04-17T11:07:08.991Z,101313.21
2023-04-17T11:09:42.558Z,101314.50
2023-04-17T11:12:14.655Z,101310.38
2023-04-17T11:14:46.630Z,101309.27
2023-04-17T11:17:18.492Z,101308.35
2023-04-17T11:19:50.699Z,101309.40
2023-04-17T11:22:23.657Z,101313.26
2023-04-17T11:24:55.442Z,101313.38
2023-04-17T11:27:28.560Z,101306.98
2023-04-17T11:30:01.143Z,101307.77
2023-04-17T11:32:38.202Z,101307.28
2023-04-17T11:35:11.706Z,101311.33
2023-04-17T11:38:06.880Z,101314.08
2023-04-17T11:40:43.243Z,101309.48
2023-04-17T11:43:15.719Z,101317.50
2023-04-17T11:45:50.937Z,101313.39
2023-04-17T11:48:27.615Z,101311.87
2023-04-17T11:51:02.153Z,101318.95
2023-04-17T11:53:37.376Z,101319.56
2023-04-17T11:56:17.127Z,101317.70
2023-04-17T11:58:51.539Z,101320.28
2023-04-17T12:01:25.342Z,101319.21
2023-04-17T12:03:58.695Z,101321.58
2023-04-17T12:06:39.852Z,101320.23
2023-04-17T12:09:24.037Z,101325.54
2023-04-17T12:11:55.862Z,101323.81
2023-04-17T12:14:27.686Z,101322.52
2023-04-17T12:17:01.164Z,101324.59
2023-04-17T12:19:33.684Z,101326.27
2023-04-17T12:22:06.171Z,101325.27
2023-04-17T12:24:38.164Z,101324.70
2023-04-17T12:27:10.381Z,101319.27
2023-04-17T12:29:44.518Z,101326.11
2023-04-17T12:32:17.769Z,101323.13
2023-04-17T12:34:49.765Z,101324.83
2023-04-17T12:37:22.526Z,101324.67
2023-04-17T12:39:52.746Z,101329.44
2023-04-17T12:42:24.852Z,101332.09
2023-04-17T12:44:57.042Z,101331.69
2023-04-17T12:47:29.576Z,101337.09
2023-04-17T12:50:00.371Z,101334.99
2023-04-17T12:52:33.038Z,101332.70
2023-04-17T12:55:05.126Z,101328.56
2023-04-17T12:57:38.409Z,101330.22
2023-04-17T13:00:12.713Z,101331.05
2023-04-17T13:02:44.705Z,101326.65
2023-04-17T13:05:16.998Z,101327.00
2023-04-17T13:07:49.045Z,101330.39
2023-04-17T13:10:21.689Z,101326.17
2023-04-17T13:12:53.783Z,101326.46
2023-04-17T13:15:24.730Z,101325.30
2023-04-17T13:17:57.091Z,101324.20
2023-04-17T13:20:29.393Z,101328.84
2023-04-17T13:23:01.571Z,101324.84
2023-04-17T13:25:34.789Z,101330.04
2023-04-17T13:28:06.803Z,101330.20
2023-04-17T13:30:39.787Z,101329.02
2023-04-17T13:33:11.863Z,101330.08
2023-04-17T13:35:43.736Z,101332.27
2023-04-17T13:38:16.267Z,101332.02
2023-04-17T13:40:48.250Z,101329.02
2023-04-17T13:43:20.086Z,101329.90
2023-04-17T13:45:55.401Z,101329.33
2023-04-17T13:48:27.785Z,101329.35
2023-04-17T13:50:59.676Z,101329.98
2023-04-17T13:53:31.684Z,101329.01
2023-04-17T13:56:03.791Z,101327.84
2023-04-17T13:58:36.039Z,101328.96
2023-04-17T14:01:08.925Z,101330.23
2023-04-17T14:03:44.593Z,101333.77
2023-04-17T14:06:18.966Z,101333.94
2023-04-17T14:08:51.054Z,101332.39
2023-04-17T14:11:23.016Z,101330.42
2023-04-17T14:13:54.904Z,101330.39
2023-04-17T14:16:27.613Z,101327.98
2023-04-17T14:19:12.284Z,101329.05
2023-04-17T14:21:45.981Z,101326.52
2023-04-17T14:24:18.281Z,101331.92
2023-04-17T14:26:50.427Z,101329.79
2023-04-17T14:29:22.503Z,101327.83
2023-04-17T14:31:55.915Z,101328.71
2023-04-17T14:34:28.747Z,101326.48
2023-04-17T14:37:02.625Z,101320.36
2023-04-17T14:39:34.843Z,101322.59
2023-04-17T14:42:07.054Z,101325.14
2023-04-17T14:44:39.792Z,101324.02
2023-04-17T14:47:13.087Z,101327.16
2023-04-17T14:49:48.778Z,101329.56
2023-04-17T14:52:24.113Z,101329.95
2023-04-17T14:54:57.558Z,101337.14
2023-04-17T14:57:30.589Z,101333.52
2023-04-17T15:00:03.781Z,101330.98
2023-04-17T15:02:38.765Z,101332.38
2023-04-17T15:05:12.648Z,101329.83
2023-04-17T15:07:47.303Z,101330.60
2023-04-17T15:10:19.335Z,101330.94
2023-04-17T15:12:51.237Z,101332.44
2023-04-17T15:15:23.229Z,101331.08
2023-04-17T15:17:55.714Z,101333.73
2023-04-17T15:20:28.968Z,101331.73
2023-04-17T15:23:01.251Z,101332.66
2023-04-17T15:25:34.357Z,101326.77
2023-04-17T15:28:06.297Z,101331.32
2023-04-17T15:30:38.269Z,101333.20
2023-04-17T15:33:10.620Z,101331.05
2023-04-17T15:35:42.537Z,101329.64
2023-04-17T15:38:14.351Z,101330.20
2023-04-17T15:40:47.477Z,101333.42
2023-04-17T15:43:21.998Z,101333.66
2023-04-17T15:45:55.525Z,101331.04
2023-04-17T15:48:27.579Z,101332.31
2023-04-17T15:51:00.845Z,101333.63
2023-04-17T15:53:34.449Z,101335.00
2023-04-17T15:56:07.536Z,101336.02
2023-04-17T15:58:39.390Z,101333.72
2023-04-17T16:01:11.791Z,101338.58
2023-04-17T16:03:44.036Z,101341.79
2023-04-17T16:06:16.781Z,101342.66
2023-04-17T16:08:49.003Z,101341.81
2023-04-17T16:11:21.302Z,101340.41
2023-04-17T16:13:53.436Z,101340.58
2023-04-17T16:16:25.703Z,101340.45
2023-04-17T16:18:57.832Z,101335.91
2023-04-17T16:21:31.251Z,101336.90
2023-04-17T16:24:04.933Z,101339.61
2023-04-17T16:26:37.947Z,101338.21
2023-04-17T16:29:10.372Z,101341.90
2023-04-17T16:31:42.944Z,101343.00
2023-04-17T16:34:15.384Z,101342.52
2023-04-17T16:36:47.447Z,101341.67
2023-04-17T16:39:19.734Z,101344.76
2023-04-17T16:41:52.985Z,101347.27
2023-04-17T16:44:26.032Z,101349.23
2023-04-17T16:47:12.613Z,101348.86
2023-04-17T16:49:45.769Z,101346.92
2023-04-17T16:52:18.274Z,101350.82
2023-04-17T16:54:50.805Z,101353.56
2023-04-17T16:57:22.833Z,101358.32
2023-04-17T16:59:54.977Z,101362.02
2023-04-17T17:02:27.239Z,101364.00
2023-04-17T17:04:59.454Z,101360.48
2023-04-17T17:07:31.667Z,101360.04
2023-04-17T17:10:03.929Z,101358.88
2023-04-17T17:12:36.333Z,101360.76
2023-04-17T17:15:10.795Z,101363.80
2023-04-17T17:17:44.400Z,101366.81
2023-04-17T17:20:17.506Z,101371.77
2023-04-17T17:22:49.965Z,101368.81
2023-04-17T17:25:22.936Z,101369.05
2023-04-17T17:27:56.337Z,101373.77
2023-04-17T17:30:28.995Z,101369.38
2023-04-17T17:33:08.691Z,101377.45
2023-04-17T17:35:43.207Z,101381.80
2023-04-17T17:38:18.978Z,101385.65
2023-04-17T17:40:53.375Z,101385.71
2023-04-17T17:43:25.584Z,101384.33
2023-04-17T17:45:58.324Z,101388.82
2023-04-17T17:48:30.846Z,101389.30
2023-04-17T17:51:02.972Z,101388.71
2023-04-17T17:53:35.332Z,101390.19
2023-04-17T17:56:08.201Z,101391.00
2023-04-17T17:58:40.278Z,101396.52
2023-04-17T18:01:12.359Z,101401.03
2023-04-17T18:03:45.485Z,101397.73
2023-04-17T18:06:19.760Z,101400.77
2023-04-17T18:08:52.845Z,101399.84
2023-04-17T18:11:24.803Z,101400.08
2023-04-17T18:13:57.078Z,101408.98
2023-04-17T18:16:31.635Z,101409.33
2023-04-17T18:19:04.961Z,101408.55
2023-04-17T18:21:37.466Z,101407.76
2023-04-17T18:24:10.871Z,101411.64
2023-04-17T18:26:43.681Z,101414.90
2023-04-17T18:29:15.878Z,101423.24
2023-04-17T18:31:48.002Z,101425.83
2023-04-17T18:34:23.108Z,101424.66
2023-04-17T18:36:56.268Z,101431.56
2023-04-17T18:39:28.484Z,101434.80
2023-04-17T18:42:01.752Z,101438.23
2023-04-17T18:44:35.239Z,101440.40
2023-04-17T18:47:07.685Z,101446.20
2023-04-17T18:49:40.255Z,101449.14
2023-04-17T18:52:12.140Z,101451.87
2023-04-17T18:54:44.313Z,101446.06
2023-04-17T18:57:16.785Z,101451.35
2023-04-17T18:59:47.733Z,101456.06
2023-04-17T19:02:19.929Z,101453.37
2023-04-17T19:04:51.719Z,101458.48
2023-04-17T19:07:23.912Z,101455.27
2023-04-17T19:09:56.892Z,101455.55
2023-04-17T19:12:30.507Z,101454.52
2023-04-17T19:15:02.436Z,101457.02
2023-04-17T19:17:34.538Z,101459.49
2023-04-17T19:20:08.210Z,101460.20
2023-04-17T19:22:40.593Z,101461.30
2023-04-17T19:25:13.378Z,101461.90
2023-04-17T19:27:43.611Z,101461.38
2023-04-17T19:30:16.880Z,101458.93
2023-04-17T19:32:49.154Z,101451.33
2023-04-17T19:35:21.512Z,101460.68
2023-04-17T19:37:53.790Z,101463.95
2023-04-17T19:40:26.238Z,101456.20
2023-04-17T19:43:01.246Z,101462.73
2023-04-17T19:45:35.820Z,101463.30
2023-04-17T19:48:09.077Z,101462.60
2023-04-17T19:50:41.285Z,101465.66
2023-04-17T19:53:13.165Z,101460.09
2023-04-17T19:55:45.348Z,101467.70
2023-04-17T19:58:17.889Z,101471.13
2023-04-17T20:00:50.247Z,101472.94
2023-04-17T20:03:22.365Z,101472.75
2023-04-17T20:05:54.994Z,101469.70
2023-04-17T20:08:27.406Z,101474.39
2023-04-17T20:10:59.268Z,101477.34
2023-04-17T20:13:31.311Z,101475.31
2023-04-17T20:16:03.094Z,101475.54
2023-04-17T20:18:35.168Z,101469.95
2023-04-17T20:21:07.484Z,101468.88
2023-04-17T20:23:39.698Z,101468.52
2023-04-17T20:26:11.782Z,101467.07
2023-04-17T20:28:43.748Z,101458.78
2023-04-17T20:31:16.004Z,101459.11
2023-04-17T20:33:48.008Z,101456.08
2023-04-17T20:36:20.225Z,101456.60
2023-04-17T20:38:52.727Z,101449.54
2023-04-17T20:41:24.747Z,101446.34
2023-04-17T20:44:00.936Z,101446.36
2023-04-17T20:46:33.021Z,101445.13
2023-04-17T20:49:05.061Z,101445.10
2023-04-17T20:51:36.909Z,101453.91
2023-04-17T20:54:08.764Z,101453.86
2023-04-17T20:56:40.926Z,101453.35
2023-04-17T20:59:12.762Z,101453.73
2023-04-17T21:01:44.895Z,101454.44
2023-04-17T21:04:16.933Z,101455.89
2023-04-17T21:06:49.944Z,101454.44
2023-04-17T21:09:23.356Z,101458.59
2023-04-17T21:11:55.360Z,101457.69
2023-04-17T21:14:27.984Z,101462.58
2023-04-17T21:16:58.588Z,101467.27
2023-04-17T21:19:34.849Z,101465.11
2023-04-17T21:22:06.669Z,101468.34
2023-04-17T21:24:40.957Z,101468.52
2023-04-17T21:27:12.843Z,101469.40
2023-04-17T21:29:44.634Z,101466.54
2023-04-17T21:32:16.421Z,101469.63
2023-04-17T21:34:48.161Z,101469.29
2023-04-17T21:37:19.930Z,101469.27
2023-04-17T21:39:52.096Z,101467.66
2023-04-17T21:42:24.061Z,101467.13
2023-04-17T21:44:56.249Z,101472.20
2023-04-17T21:47:28.006Z,101466.79
2023-04-17T21:50:00.510Z,101470.58
2023-04-17T21:52:32.328Z,101468.27
2023-04-17T21:55:05.624Z,101474.39
2023-04-17T21:57:37.486Z,101470.23
2023-04-17T22:00:12.620Z,101467.52
2023-04-17T22:02:44.812Z,101468.06
2023-04-17T22:05:16.954Z,101474.05
2023-04-17T22:07:54.996Z,101474.77
2023-04-17T22:10:27.499Z,101475.87
2023-04-17T22:12:59.751Z,101473.17
2023-04-17T22:15:31.864Z,101475.70
2023-04-17T22:18:03.693Z,101484.53
2023-04-17T22:20:35.463Z,101482.00
2023-04-17T22:23:07.862Z,101488.69
2023-04-17T22:25:39.546Z,101484.34
2023-04-17T22:28:11.383Z,101483.61
2023-04-17T22:30:43.394Z,101488.48
2023-04-17T22:33:15.541Z,101482.90
2023-04-17T22:35:47.387Z,101489.57
2023-04-17T22:38:21.101Z,101491.02
2023-04-17T22:40:52.964Z,101489.22
2023-04-17T22:43:24.749Z,101489.40
2023-04-17T22:45:57.343Z,101492.83
2023-04-17T22:48:28.360Z,101489.41
2023-04-17T22:51:01.096Z,101487.79
2023-04-17T22:53:31.450Z,101484.19
2023-04-17T22:56:04.912Z,101488.89
2023-04-17T22:58:36.807Z,101490.34
2023-04-17T23:01:08.805Z,101491.05
2023-04-17T23:03:41.184Z,101486.91
2023-04-17T23:06:12.941Z,101484.39
2023-04-17T23:08:44.828Z,101483.48
2023-04-17T23:11:16.719Z,101485.83
2023-04-17T23:13:48.555Z,101482.41
2023-04-17T23:16:20.858Z,101483.67
2023-04-17T23:18:52.683Z,101482.95
2023-04-17T23:21:25.310Z,101482.59
2023-04-17T23:23:57.769Z,101477.37
2023-04-17T23:26:29.915Z,101478.98
2023-04-17T23:29:01.692Z,101477.17
2023-04-17T23:31:33.599Z,101474.28
2023-04-17T23:34:05.473Z,101475.91
2023-04-17T23:36:37.410Z,101471.95
2023-04-17T23:39:09.389Z,101467.63
2023-04-17T23:41:42.810Z,101469.79
2023-04-17T23:44:14.902Z,101466.20
2023-04-17T23:46:47.019Z,101468.89
2023-04-17T23:49:18.849Z,101468.34
2023-04-17T23:51:50.571Z,101465.28
2023-04-17T23:54:23.534Z,101467.63
2023-04-17T23:56:55.694Z,101466.55
2023-04-17T23:59:27.703Z,101472.66
